createdAt,value
2022-07-29T03:19:38.303Z,0.00
2022-07-29T03:20:38.292Z,0.00
2022-07-29T03:21:38.280Z,0.00
2022-07-29T03:22:38.269Z,0.00
2022-07-29T03:23:38.262Z,0.00
2022-07-29T03:24:38.254Z,0.00
2022-07-29T03:30:38.193Z,0.00
2022-07-29T03:31:38.276Z,0.00
2022-07-29T03:32:38.173Z,0.00
2022-07-29T03:33:38.162Z,0.00
2022-07-29T03:36:38.132Z,0.00
2022-07-29T03:37:38.124Z,0.00
2022-07-29T03:38:38.113Z,0.00
2022-07-29T03:39:38.099Z,0.00
2022-07-29T03:40:38.096Z,0.00
2022-07-29T03:41:38.082Z,0.00
2022-07-29T03:42:38.069Z,0.00
2022-07-29T03:43:38.059Z,0.00
2022-07-29T03:44:39.082Z,0.00
2022-07-29T03:45:38.042Z,0.00
2022-07-29T03:46:38.142Z,0.00
2022-07-29T03:47:50.021Z,0.00
2022-07-29T03:48:39.082Z,0.00
2022-07-29T03:49:38.002Z,0.00
2022-07-29T03:50:37.989Z,0.00
2022-07-29T03:51:37.978Z,0.00
2022-07-29T03:52:37.966Z,0.00
2022-07-29T03:53:37.959Z,0.00
2022-07-29T03:54:37.950Z,0.00
2022-07-29T03:55:37.939Z,0.00
2022-07-29T03:56:37.927Z,0.00
2022-07-29T03:57:37.918Z,0.00
2022-07-29T03:58:37.906Z,0.00
2022-07-29T03:59:37.900Z,0.00
2022-07-29T04:00:37.887Z,0.00
2022-07-29T04:01:37.909Z,0.00
2022-07-29T04:02:37.870Z,0.00
2022-07-29T04:03:37.924Z,0.00
2022-07-29T04:04:37.846Z,0.00
2022-07-29T04:05:37.839Z,0.00
2022-07-29T04:06:37.829Z,0.00
2022-07-29T04:07:37.816Z,0.00
2022-07-29T04:08:37.804Z,5.62
2022-07-29T04:09:37.793Z,5.62
2022-07-29T04:10:37.786Z,5.62
2022-07-29T04:12:03.420Z,5.62
2022-07-29T04:12:38.792Z,5.62
2022-07-29T04:13:37.760Z,5.62
2022-07-29T04:14:37.748Z,5.62
2022-07-29T04:15:37.791Z,5.62
2022-07-29T04:16:37.726Z,5.62
2022-07-29T04:17:37.716Z,5.62
2022-07-29T04:18:37.705Z,5.62
2022-07-29T04:19:37.697Z,5.62
2022-07-29T04:20:37.686Z,5.62
2022-07-29T04:21:37.677Z,5.62
2022-07-29T04:22:37.667Z,5.62
2022-07-29T04:23:49.380Z,5.62
2022-07-29T04:24:40.215Z,11.25
2022-07-29T04:25:37.636Z,11.25
2022-07-29T04:26:37.627Z,11.25
2022-07-29T04:27:37.617Z,11.25
2022-07-29T04:28:37.604Z,11.25
2022-07-29T04:29:37.595Z,11.25
2022-07-29T04:30:37.588Z,16.87
2022-07-29T04:31:37.656Z,16.87
2022-07-29T04:32:37.568Z,16.87
2022-07-29T04:33:37.555Z,16.87
2022-07-29T04:34:37.549Z,16.87
2022-07-29T04:35:38.266Z,16.87
2022-07-29T04:36:37.526Z,22.50
2022-07-29T04:37:37.515Z,22.50
2022-07-29T04:38:37.509Z,22.50
2022-07-29T04:39:37.501Z,28.12
2022-07-29T04:40:38.648Z,28.12
2022-07-29T04:41:37.480Z,28.12
2022-07-29T04:42:43.972Z,28.12
2022-07-29T04:43:38.476Z,28.12
2022-07-29T04:44:39.496Z,33.75
2022-07-29T04:45:37.449Z,33.75
2022-07-29T04:46:37.642Z,33.75
2022-07-29T04:47:37.435Z,33.75
2022-07-29T04:48:37.478Z,33.75
2022-07-29T04:49:37.400Z,39.37
2022-07-29T04:50:37.387Z,39.37
2022-07-29T04:51:37.378Z,39.37
2022-07-29T04:52:37.371Z,39.37
2022-07-29T04:53:37.359Z,39.37
2022-07-29T04:54:37.347Z,39.37
2022-07-29T04:55:37.346Z,39.37
2022-07-29T04:56:37.330Z,45.00
2022-07-29T04:57:37.321Z,45.00
2022-07-29T04:58:37.309Z,45.00
2022-07-29T04:59:37.299Z,45.00
2022-07-29T05:00:37.293Z,45.00
2022-07-29T05:01:37.364Z,45.00
2022-07-29T05:02:37.439Z,45.00
2022-07-29T05:03:37.261Z,45.00
2022-07-29T05:04:37.250Z,50.62
2022-07-29T05:05:37.242Z,50.62
2022-07-29T05:06:37.227Z,50.62
2022-07-29T05:07:37.215Z,50.62
2022-07-29T05:08:37.212Z,50.62
2022-07-29T05:09:37.198Z,50.62
2022-07-29T05:10:37.188Z,50.62
2022-07-29T05:11:37.176Z,50.62
2022-07-29T05:12:37.166Z,50.62
2022-07-29T05:13:45.837Z,50.62
2022-07-29T05:14:37.144Z,50.62
2022-07-29T05:15:37.202Z,50.62
2022-07-29T05:16:37.123Z,50.62
2022-07-29T05:17:37.117Z,50.62
2022-07-29T05:18:37.103Z,50.62
2022-07-29T05:19:39.552Z,50.62
2022-07-29T05:20:37.085Z,50.62
2022-07-29T05:21:37.075Z,50.62
2022-07-29T05:22:37.067Z,50.62
2022-07-29T05:23:37.055Z,50.62
2022-07-29T05:24:37.044Z,56.25
2022-07-29T05:25:43.454Z,56.25
2022-07-29T05:26:38.041Z,56.25
2022-07-29T05:27:37.011Z,56.25
2022-07-29T05:28:36.997Z,61.87
2022-07-29T05:29:43.983Z,61.87
2022-07-29T05:30:38.074Z,61.87
2022-07-29T05:31:36.987Z,61.87
2022-07-29T05:32:36.956Z,61.87
2022-07-29T05:33:37.280Z,61.87
2022-07-29T05:34:36.936Z,61.87
2022-07-29T05:35:37.948Z,61.87
2022-07-29T05:36:36.912Z,67.50
2022-07-29T05:37:36.905Z,67.50
2022-07-29T05:38:37.182Z,67.50
2022-07-29T05:39:48.591Z,67.50
2022-07-29T05:40:36.873Z,67.50
2022-07-29T05:41:36.865Z,73.12
2022-07-29T05:42:36.853Z,73.12
2022-07-29T05:43:36.843Z,73.12
2022-07-29T05:44:36.831Z,73.12
2022-07-29T05:45:50.025Z,78.75
2022-07-29T05:46:37.939Z,78.75
2022-07-29T05:47:36.800Z,78.75
2022-07-29T05:48:36.877Z,78.75
2022-07-29T05:49:36.906Z,78.75
2022-07-29T05:50:36.770Z,78.75
2022-07-29T05:51:36.762Z,84.37
2022-07-29T05:52:36.752Z,84.37
2022-07-29T05:53:36.742Z,84.37
2022-07-29T05:54:36.732Z,84.37
2022-07-29T05:55:36.720Z,78.75
2022-07-29T05:56:36.714Z,78.75
2022-07-29T05:57:36.702Z,78.75
2022-07-29T05:58:36.691Z,73.12
2022-07-29T05:59:36.683Z,73.12
2022-07-29T06:00:36.674Z,73.12
2022-07-29T06:01:36.727Z,73.12
2022-07-29T06:02:36.649Z,73.12
2022-07-29T06:03:36.641Z,78.75
2022-07-29T06:04:36.691Z,78.75
2022-07-29T06:05:36.619Z,78.75
2022-07-29T06:06:36.610Z,78.75
2022-07-29T06:07:36.601Z,84.37
2022-07-29T06:08:36.590Z,84.37
2022-07-29T06:09:36.581Z,84.37
2022-07-29T06:10:36.574Z,84.37
2022-07-29T06:11:36.562Z,90.00
2022-07-29T06:12:36.549Z,90.00
2022-07-29T06:13:36.539Z,90.00
2022-07-29T06:14:36.531Z,95.62
2022-07-29T06:15:36.600Z,101.25
2022-07-29T06:16:36.580Z,106.87
2022-07-29T06:17:36.501Z,112.50
2022-07-29T06:18:36.489Z,123.75
2022-07-29T06:19:36.480Z,123.75
2022-07-29T06:20:36.471Z,129.37
2022-07-29T06:21:36.463Z,129.37
2022-07-29T06:22:36.453Z,135.00
2022-07-29T06:23:36.442Z,135.00
2022-07-29T06:24:36.431Z,135.00
2022-07-29T06:25:36.421Z,129.37
2022-07-29T06:26:39.618Z,129.37
2022-07-29T06:27:36.404Z,129.37
2022-07-29T06:28:36.391Z,129.37
2022-07-29T06:29:36.383Z,129.37
2022-07-29T06:30:36.433Z,129.37
2022-07-29T06:31:36.361Z,129.37
2022-07-29T06:32:38.949Z,129.37
2022-07-29T06:33:36.344Z,129.37
2022-07-29T06:34:36.337Z,129.37
2022-07-29T06:35:39.214Z,129.37
2022-07-29T06:36:36.312Z,129.37
2022-07-29T06:37:36.304Z,129.37
2022-07-29T06:38:36.310Z,129.37
2022-07-29T06:39:37.311Z,129.37
2022-07-29T06:40:36.273Z,129.37
2022-07-29T06:41:36.262Z,129.37
2022-07-29T06:42:36.252Z,129.37
2022-07-29T06:43:36.244Z,123.75
2022-07-29T06:44:36.237Z,123.75
2022-07-29T06:45:36.222Z,123.75
2022-07-29T06:46:36.292Z,123.75
2022-07-29T06:47:36.202Z,123.75
2022-07-29T06:48:36.196Z,123.75
2022-07-29T06:49:36.184Z,129.37
2022-07-29T06:50:36.172Z,123.75
2022-07-29T06:51:36.158Z,129.37
2022-07-29T06:52:36.148Z,135.00
2022-07-29T06:53:36.140Z,140.62
2022-07-29T06:54:36.130Z,146.25
2022-07-29T06:55:36.119Z,146.25
2022-07-29T06:56:38.477Z,146.25
2022-07-29T06:57:36.101Z,146.25
2022-07-29T06:58:36.085Z,151.87
2022-07-29T06:59:36.246Z,146.25
2022-07-29T07:00:36.069Z,151.87
2022-07-29T07:01:36.199Z,151.87
2022-07-29T07:02:36.127Z,151.87
2022-07-29T07:03:36.033Z,151.87
2022-07-29T07:04:36.022Z,157.50
2022-07-29T07:05:36.014Z,157.50
2022-07-29T07:06:36.011Z,157.50
2022-07-29T07:07:35.997Z,157.50
2022-07-29T07:08:35.983Z,157.50
2022-07-29T07:09:40.387Z,157.50
2022-07-29T07:10:35.962Z,163.12
2022-07-29T07:11:35.951Z,163.12
2022-07-29T07:12:35.941Z,163.12
2022-07-29T07:13:36.726Z,163.12
2022-07-29T07:14:35.924Z,163.12
2022-07-29T07:15:40.033Z,163.12
2022-07-29T07:16:35.987Z,163.12
2022-07-29T07:17:35.891Z,163.12
2022-07-29T07:18:35.879Z,168.75
2022-07-29T07:19:35.868Z,163.12
2022-07-29T07:20:35.861Z,163.12
2022-07-29T07:21:36.056Z,163.12
2022-07-29T07:22:38.907Z,168.75
2022-07-29T07:23:35.828Z,168.75
2022-07-29T07:24:35.820Z,168.75
2022-07-29T07:25:35.808Z,168.75
2022-07-29T07:26:35.800Z,157.50
2022-07-29T07:27:35.787Z,168.75
2022-07-29T07:28:35.780Z,168.75
2022-07-29T07:29:35.767Z,168.75
2022-07-29T07:30:35.759Z,168.75
2022-07-29T07:31:35.853Z,174.37
2022-07-29T07:32:35.738Z,174.37
2022-07-29T07:33:35.726Z,174.37
2022-07-29T07:34:35.719Z,174.37
2022-07-29T07:35:35.708Z,174.37
2022-07-29T07:36:35.698Z,174.37
2022-07-29T07:37:35.690Z,174.37
2022-07-29T07:38:35.676Z,174.37
2022-07-29T07:39:35.669Z,174.37
2022-07-29T07:40:35.659Z,174.37
2022-07-29T07:41:35.648Z,174.37
2022-07-29T07:42:35.648Z,174.37
2022-07-29T07:43:35.629Z,180.00
2022-07-29T07:44:51.366Z,180.00
2022-07-29T07:45:36.714Z,180.00
2022-07-29T07:46:35.603Z,180.00
2022-07-29T07:47:35.590Z,180.00
2022-07-29T07:48:35.580Z,180.00
2022-07-29T07:49:35.569Z,180.00
2022-07-29T07:50:35.562Z,180.00
2022-07-29T07:51:35.549Z,180.00
2022-07-29T07:52:35.544Z,180.00
2022-07-29T07:53:35.528Z,180.00
2022-07-29T07:54:35.536Z,185.62
2022-07-29T07:56:00.437Z,185.62
2022-07-29T07:56:36.518Z,185.62
2022-07-29T07:57:35.491Z,185.62
2022-07-29T07:58:35.479Z,191.25
2022-07-29T07:59:35.469Z,202.50
2022-07-29T08:00:35.477Z,213.75
2022-07-29T08:01:47.815Z,219.37
2022-07-29T08:02:36.513Z,213.75
2022-07-29T08:03:35.438Z,219.37
2022-07-29T08:04:35.416Z,213.75
2022-07-29T08:05:35.410Z,208.12
2022-07-29T08:06:35.401Z,208.12
2022-07-29T08:07:35.390Z,213.75
2022-07-29T08:08:35.380Z,213.75
2022-07-29T08:09:35.373Z,213.75
2022-07-29T08:10:35.362Z,213.75
2022-07-29T08:11:35.359Z,219.37
2022-07-29T08:12:35.343Z,219.37
2022-07-29T08:13:35.331Z,219.37
2022-07-29T08:14:35.322Z,219.37
2022-07-29T08:15:35.311Z,219.37
2022-07-29T08:16:35.326Z,219.37
2022-07-29T08:17:35.646Z,225.00
2022-07-29T08:18:35.329Z,225.00
2022-07-29T08:19:35.270Z,225.00
2022-07-29T08:20:35.265Z,225.00
2022-07-29T08:21:35.253Z,225.00
2022-07-29T08:22:35.242Z,230.62
2022-07-29T08:23:46.850Z,230.62
2022-07-29T08:24:35.225Z,236.25
2022-07-29T08:25:35.751Z,230.62
2022-07-29T08:26:35.205Z,230.62
2022-07-29T08:27:44.036Z,230.62
2022-07-29T08:28:36.203Z,230.62
2022-07-29T08:29:35.173Z,230.62
2022-07-29T08:30:35.163Z,236.25
2022-07-29T08:31:35.176Z,236.25
2022-07-29T08:32:53.271Z,236.25
2022-07-29T08:33:36.155Z,236.25
2022-07-29T08:34:35.130Z,236.25
2022-07-29T08:35:36.424Z,236.25
2022-07-29T08:36:35.102Z,241.87
2022-07-29T08:37:35.093Z,247.50
2022-07-29T08:38:35.085Z,247.50
2022-07-29T08:39:35.075Z,253.12
2022-07-29T08:40:35.063Z,253.12
2022-07-29T08:41:35.060Z,247.50
2022-07-29T08:42:35.045Z,253.12
2022-07-29T08:43:35.037Z,253.12
2022-07-29T08:44:35.025Z,253.12
2022-07-29T08:45:35.100Z,253.12
2022-07-29T08:46:35.006Z,253.12
2022-07-29T08:47:34.998Z,258.75
2022-07-29T08:48:34.990Z,258.75
2022-07-29T08:49:34.979Z,258.75
2022-07-29T08:50:34.967Z,253.12
2022-07-29T08:51:34.957Z,236.25
2022-07-29T08:52:34.947Z,253.12
2022-07-29T08:53:34.939Z,247.50
2022-07-29T08:54:34.934Z,258.75
2022-07-29T08:55:34.920Z,258.75
2022-07-29T08:56:34.910Z,258.75
2022-07-29T08:57:34.898Z,258.75
2022-07-29T08:58:36.855Z,264.37
2022-07-29T08:59:34.878Z,264.37
2022-07-29T09:00:34.871Z,264.37
2022-07-29T09:01:35.111Z,264.37
2022-07-29T09:02:34.848Z,264.37
2022-07-29T09:03:34.907Z,270.00
2022-07-29T09:04:34.832Z,270.00
2022-07-29T09:05:39.646Z,258.75
2022-07-29T09:06:34.813Z,270.00
2022-07-29T09:07:34.938Z,270.00
2022-07-29T09:08:34.791Z,270.00
2022-07-29T09:09:34.782Z,270.00
2022-07-29T09:10:34.775Z,270.00
2022-07-29T09:11:34.764Z,275.62
2022-07-29T09:12:37.944Z,275.62
2022-07-29T09:13:34.745Z,275.62
2022-07-29T09:14:34.748Z,275.62
2022-07-29T09:15:34.724Z,275.62
2022-07-29T09:16:52.234Z,275.62
2022-07-29T09:17:35.784Z,275.62
2022-07-29T09:18:34.697Z,281.25
2022-07-29T09:19:34.686Z,281.25
2022-07-29T09:20:34.675Z,286.87
2022-07-29T09:21:34.667Z,292.50
2022-07-29T09:22:38.786Z,292.50
2022-07-29T09:23:35.819Z,298.12
2022-07-29T09:24:34.643Z,298.12
2022-07-29T09:25:34.633Z,303.75
2022-07-29T09:26:34.626Z,303.75
2022-07-29T09:27:34.619Z,309.37
2022-07-29T09:28:34.606Z,309.37
2022-07-29T09:29:36.384Z,315.00
2022-07-29T09:30:34.590Z,320.62
2022-07-29T09:31:34.629Z,326.25
2022-07-29T09:32:34.566Z,326.25
2022-07-29T09:33:34.558Z,331.87
2022-07-29T09:34:34.549Z,331.87
2022-07-29T09:35:34.551Z,337.50
2022-07-29T09:36:34.534Z,337.50
2022-07-29T09:37:34.521Z,337.50
2022-07-29T09:38:34.511Z,337.50
2022-07-29T09:39:34.503Z,343.12
2022-07-29T09:40:34.493Z,326.25
2022-07-29T09:41:34.486Z,309.37
2022-07-29T09:42:34.474Z,298.12
2022-07-29T09:43:34.480Z,315.00
2022-07-29T09:44:34.460Z,315.00
2022-07-29T09:45:34.450Z,320.62
2022-07-29T09:46:34.485Z,303.75
2022-07-29T09:47:34.431Z,320.62
2022-07-29T09:48:34.424Z,331.87
2022-07-29T09:49:34.412Z,326.25
2022-07-29T09:50:34.401Z,348.75
2022-07-29T09:51:38.121Z,354.37
2022-07-29T09:52:34.386Z,360.00
2022-07-29T09:53:34.378Z,360.00
2022-07-29T09:54:34.368Z,360.00
2022-07-29T09:55:34.430Z,337.50
2022-07-29T09:56:34.353Z,315.00
2022-07-29T09:57:34.339Z,309.37
2022-07-29T09:58:34.333Z,320.62
2022-07-29T09:59:34.325Z,331.87
2022-07-29T10:00:34.399Z,331.87
2022-07-29T10:01:34.306Z,292.50
2022-07-29T10:02:34.299Z,281.25
2022-07-29T10:03:34.383Z,275.62
2022-07-29T10:04:34.278Z,275.62
2022-07-29T10:05:36.207Z,286.87
2022-07-29T10:06:34.264Z,320.62
2022-07-29T10:07:34.253Z,343.12
2022-07-29T10:08:34.243Z,405.00
2022-07-29T10:09:34.237Z,427.50
2022-07-29T10:10:34.226Z,433.12
2022-07-29T10:11:48.369Z,438.75
2022-07-29T10:12:34.210Z,444.37
2022-07-29T10:13:34.199Z,410.62
2022-07-29T10:14:34.192Z,433.12
2022-07-29T10:15:34.180Z,405.00
2022-07-29T10:16:34.374Z,388.12
2022-07-29T10:17:34.162Z,399.37
2022-07-29T10:18:34.153Z,393.75
2022-07-29T10:19:34.149Z,405.00
2022-07-29T10:20:34.144Z,376.87
2022-07-29T10:21:35.950Z,376.87
2022-07-29T10:22:52.558Z,393.75
2022-07-29T10:23:46.954Z,382.50
2022-07-29T10:24:34.099Z,365.62
2022-07-29T10:25:34.090Z,360.00
2022-07-29T10:26:34.086Z,365.62
2022-07-29T10:27:34.076Z,360.00
2022-07-29T10:28:34.068Z,360.00
2022-07-29T10:29:34.056Z,371.25
2022-07-29T10:30:34.046Z,382.50
2022-07-29T10:31:34.146Z,416.25
2022-07-29T10:32:34.028Z,405.00
2022-07-29T10:33:34.026Z,405.00
2022-07-29T10:34:34.162Z,478.12
2022-07-29T10:35:34.006Z,478.12
2022-07-29T10:36:33.995Z,472.50
2022-07-29T10:37:35.999Z,376.87
2022-07-29T10:38:33.979Z,371.25
2022-07-29T10:39:41.655Z,365.62
2022-07-29T10:40:35.841Z,376.87
2022-07-29T10:41:44.366Z,365.62
2022-07-29T10:42:34.989Z,365.62
2022-07-29T10:43:33.933Z,376.87
2022-07-29T10:44:33.926Z,410.62
2022-07-29T10:45:33.914Z,438.75
2022-07-29T10:46:33.952Z,444.37
2022-07-29T10:47:35.197Z,421.87
2022-07-29T10:48:33.893Z,410.62
2022-07-29T10:49:33.940Z,416.25
2022-07-29T10:50:33.869Z,410.62
2022-07-29T10:51:33.866Z,421.87
2022-07-29T10:52:33.851Z,399.37
2022-07-29T10:53:34.009Z,388.12
2022-07-29T10:54:33.831Z,438.75
2022-07-29T10:55:33.831Z,433.12
2022-07-29T10:56:33.820Z,371.25
2022-07-29T10:57:53.412Z,371.25
2022-07-29T10:58:34.817Z,393.75
2022-07-29T10:59:36.182Z,399.37
2022-07-29T11:00:33.781Z,393.75
2022-07-29T11:01:37.629Z,405.00
2022-07-29T11:02:42.365Z,455.62
2022-07-29T11:03:34.840Z,489.37
2022-07-29T11:04:33.745Z,455.62
2022-07-29T11:05:40.734Z,416.25
2022-07-29T11:06:33.725Z,405.00
2022-07-29T11:07:45.717Z,393.75
2022-07-29T11:08:34.729Z,371.25
2022-07-29T11:09:37.712Z,388.12
2022-07-29T11:10:33.688Z,416.25
2022-07-29T11:11:33.680Z,421.87
2022-07-29T11:12:33.672Z,444.37
2022-07-29T11:13:37.212Z,478.12
2022-07-29T11:14:34.673Z,455.62
2022-07-29T11:15:33.646Z,517.50
2022-07-29T11:16:33.634Z,540.00
2022-07-29T11:17:37.640Z,573.75
2022-07-29T11:18:33.615Z,596.25
2022-07-29T11:19:33.609Z,646.87
2022-07-29T11:20:33.607Z,663.75
2022-07-29T11:21:48.920Z,680.62
2022-07-29T11:22:33.578Z,697.50
2022-07-29T11:23:34.674Z,720.00
2022-07-29T11:24:34.990Z,742.50
2022-07-29T11:25:50.143Z,753.75
2022-07-29T11:26:34.563Z,759.37
2022-07-29T11:27:33.539Z,697.50
2022-07-29T11:28:33.529Z,720.00
2022-07-29T11:29:33.523Z,556.87
2022-07-29T11:30:33.512Z,551.25
2022-07-29T11:31:33.503Z,511.87
2022-07-29T11:32:33.496Z,596.25
2022-07-29T11:33:37.407Z,607.50
2022-07-29T11:34:34.864Z,540.00
2022-07-29T11:35:37.672Z,545.62
2022-07-29T11:36:34.481Z,607.50
2022-07-29T11:37:33.450Z,736.87
2022-07-29T11:38:34.466Z,652.50
2022-07-29T11:39:36.943Z,585.00
2022-07-29T11:40:33.428Z,725.62
2022-07-29T11:41:33.419Z,675.00
2022-07-29T11:42:34.513Z,556.87
2022-07-29T11:43:33.400Z,540.00
2022-07-29T11:44:33.390Z,568.12
2022-07-29T11:46:34.398Z,478.12
2022-07-29T11:47:38.302Z,483.75
2022-07-29T11:48:34.799Z,500.62
2022-07-29T11:49:33.428Z,551.25
2022-07-29T11:50:33.339Z,607.50
2022-07-29T11:51:33.348Z,708.75
2022-07-29T11:52:33.320Z,742.50
2022-07-29T11:53:33.453Z,742.50
2022-07-29T11:54:33.310Z,663.75
2022-07-29T11:55:33.920Z,708.75
2022-07-29T11:56:33.292Z,652.50
2022-07-29T11:57:37.108Z,652.50
2022-07-29T11:58:33.274Z,675.00
2022-07-29T11:59:34.714Z,630.00
2022-07-29T12:00:33.256Z,534.37
2022-07-29T12:01:33.247Z,540.00
2022-07-29T12:02:37.096Z,545.62
2022-07-29T12:04:34.240Z,770.62
2022-07-29T12:05:36.228Z,894.37
2022-07-29T12:06:33.212Z,843.75
2022-07-29T12:07:02.021Z,489.37
2022-07-29T12:07:35.193Z,714.37
2022-07-29T12:08:33.189Z,607.50
2022-07-29T12:09:40.258Z,725.62
2022-07-29T12:10:34.191Z,748.12
2022-07-29T12:11:33.161Z,556.87
2022-07-29T12:12:33.151Z,663.75
2022-07-29T12:13:37.728Z,388.12
2022-07-29T12:14:33.133Z,337.50
2022-07-29T12:15:45.731Z,320.62
2022-07-29T12:16:34.187Z,320.62
2022-07-29T12:17:33.131Z,326.25
2022-07-29T12:18:33.097Z,303.75
2022-07-29T12:19:33.088Z,275.62
2022-07-29T12:20:33.082Z,253.12
2022-07-29T12:21:33.076Z,241.87
2022-07-29T12:22:33.064Z,241.87
2022-07-29T12:23:35.010Z,230.62
2022-07-29T12:24:33.049Z,230.62
2022-07-29T12:25:34.636Z,230.62
2022-07-29T12:26:34.193Z,236.25
2022-07-29T12:27:33.025Z,236.25
2022-07-29T12:28:34.032Z,236.25
2022-07-29T12:29:33.672Z,241.87
2022-07-29T12:30:32.994Z,241.87
2022-07-29T12:31:43.922Z,253.12
2022-07-29T12:32:34.111Z,258.75
2022-07-29T12:33:32.969Z,253.12
2022-07-29T12:34:32.960Z,241.87
2022-07-29T12:35:32.953Z,241.87
2022-07-29T12:36:32.938Z,247.50
2022-07-29T12:37:37.610Z,253.12
2022-07-29T12:38:33.940Z,258.75
2022-07-29T12:39:32.915Z,270.00
2022-07-29T12:40:32.904Z,292.50
2022-07-29T12:41:32.895Z,354.37
2022-07-29T12:42:32.886Z,388.12
2022-07-29T12:43:32.879Z,399.37
2022-07-29T12:44:32.868Z,286.87
2022-07-29T12:45:32.860Z,281.25
2022-07-29T12:46:32.915Z,236.25
2022-07-29T12:47:32.841Z,213.75
2022-07-29T12:48:32.834Z,196.87
2022-07-29T12:49:32.819Z,185.62
2022-07-29T12:50:32.815Z,180.00
2022-07-29T12:51:32.808Z,168.75
2022-07-29T12:52:32.795Z,163.12
2022-07-29T12:53:32.784Z,157.50
2022-07-29T12:54:32.776Z,151.87
2022-07-29T12:55:32.768Z,151.87
2022-07-29T12:56:42.879Z,151.87
2022-07-29T12:57:33.902Z,151.87
2022-07-29T12:58:32.738Z,151.87
2022-07-29T12:59:32.729Z,151.87
2022-07-29T13:00:32.815Z,151.87
2022-07-29T13:01:32.721Z,151.87
2022-07-29T13:02:32.790Z,146.25
2022-07-29T13:03:35.787Z,146.25
2022-07-29T13:04:32.686Z,146.25
2022-07-29T13:05:32.670Z,146.25
2022-07-29T13:06:32.660Z,146.25
2022-07-29T13:07:54.656Z,146.25
2022-07-29T13:08:32.644Z,140.62
2022-07-29T13:09:32.631Z,140.62
2022-07-29T13:10:32.624Z,135.00
2022-07-29T13:11:34.125Z,135.00
2022-07-29T13:12:32.601Z,135.00
2022-07-29T13:13:32.591Z,135.00
2022-07-29T13:14:32.605Z,129.37
2022-07-29T13:15:32.571Z,129.37
2022-07-29T13:16:32.610Z,129.37
2022-07-29T13:17:33.047Z,123.75
2022-07-29T13:18:32.544Z,123.75
2022-07-29T13:19:32.535Z,118.12
2022-07-29T13:20:32.528Z,112.50
2022-07-29T13:21:32.518Z,112.50
2022-07-29T13:22:32.516Z,106.87
2022-07-29T13:23:32.503Z,106.87
2022-07-29T13:24:32.489Z,106.87
2022-07-29T13:25:32.478Z,106.87
2022-07-29T13:26:32.470Z,106.87
2022-07-29T13:27:32.463Z,112.50
2022-07-29T13:28:32.455Z,112.50
2022-07-29T13:29:32.445Z,118.12
2022-07-29T13:30:32.493Z,118.12
2022-07-29T13:31:32.422Z,123.75
2022-07-29T13:32:32.413Z,129.37
2022-07-29T13:33:32.400Z,135.00
2022-07-29T13:34:32.389Z,140.62
2022-07-29T13:35:32.383Z,146.25
2022-07-29T13:36:32.376Z,157.50
2022-07-29T13:37:32.363Z,163.12
2022-07-29T13:38:32.349Z,168.75
2022-07-29T13:39:32.343Z,168.75
2022-07-29T13:40:32.336Z,168.75
2022-07-29T13:41:32.330Z,168.75
2022-07-29T13:42:32.315Z,174.37
2022-07-29T13:43:32.307Z,174.37
2022-07-29T13:44:32.294Z,174.37
2022-07-29T13:45:32.284Z,180.00
2022-07-29T13:46:32.359Z,185.62
2022-07-29T13:47:33.372Z,196.87
2022-07-29T13:48:32.258Z,196.87
2022-07-29T13:49:32.245Z,208.12
2022-07-29T13:50:32.235Z,213.75
2022-07-29T13:51:32.227Z,236.25
2022-07-29T13:52:32.221Z,241.87
2022-07-29T13:53:32.204Z,202.50
2022-07-29T13:54:32.198Z,185.62
2022-07-29T13:55:32.195Z,180.00
2022-07-29T13:56:32.176Z,174.37
2022-07-29T13:57:32.170Z,168.75
2022-07-29T13:58:32.158Z,163.12
2022-07-29T13:59:32.150Z,157.50
2022-07-29T14:00:32.137Z,146.25
2022-07-29T14:01:32.222Z,140.62
2022-07-29T14:02:32.119Z,129.37
2022-07-29T14:03:32.117Z,118.12
2022-07-29T14:04:32.183Z,112.50
2022-07-29T14:05:32.090Z,106.87
2022-07-29T14:06:32.082Z,101.25
2022-07-29T14:07:32.069Z,101.25
2022-07-29T14:08:32.060Z,101.25
2022-07-29T14:09:40.939Z,101.25
2022-07-29T14:10:32.042Z,101.25
2022-07-29T14:11:32.035Z,101.25
2022-07-29T14:12:32.024Z,101.25
2022-07-29T14:13:32.015Z,101.25
2022-07-29T14:14:32.002Z,101.25
2022-07-29T14:15:31.995Z,95.62
2022-07-29T14:16:32.087Z,95.62
2022-07-29T14:17:31.975Z,90.00
2022-07-29T14:18:31.964Z,84.37
2022-07-29T14:19:31.954Z,84.37
2022-07-29T14:20:31.941Z,78.75
2022-07-29T14:21:31.935Z,78.75
2022-07-29T14:22:31.922Z,73.12
2022-07-29T14:23:31.912Z,73.12
2022-07-29T14:24:31.902Z,67.50
2022-07-29T14:25:31.893Z,67.50
2022-07-29T14:26:31.885Z,61.87
2022-07-29T14:27:37.926Z,61.87
2022-07-29T14:28:31.866Z,56.25
2022-07-29T14:29:38.273Z,56.25
2022-07-29T14:30:31.842Z,56.25
2022-07-29T14:31:31.907Z,56.25
2022-07-29T14:32:31.822Z,50.62
2022-07-29T14:33:31.814Z,50.62
2022-07-29T14:34:31.807Z,50.62
2022-07-29T14:35:31.795Z,50.62
2022-07-29T14:36:31.786Z,50.62
2022-07-29T14:37:39.836Z,45.00
2022-07-29T14:38:31.767Z,45.00
2022-07-29T14:39:32.181Z,45.00
2022-07-29T14:40:31.746Z,45.00
2022-07-29T14:41:31.738Z,45.00
2022-07-29T14:42:31.728Z,45.00
2022-07-29T14:43:31.714Z,50.62
2022-07-29T14:44:31.703Z,50.62
2022-07-29T14:45:31.731Z,56.25
2022-07-29T14:46:31.797Z,56.25
2022-07-29T14:47:31.675Z,61.87
2022-07-29T14:48:31.665Z,67.50
2022-07-29T14:49:31.655Z,73.12
2022-07-29T14:50:32.361Z,78.75
2022-07-29T14:51:32.478Z,78.75
2022-07-29T14:52:31.623Z,78.75
2022-07-29T14:53:31.617Z,84.37
2022-07-29T14:54:31.605Z,84.37
2022-07-29T14:55:31.597Z,90.00
2022-07-29T14:56:36.993Z,90.00
2022-07-29T14:57:32.598Z,90.00
2022-07-29T14:58:31.564Z,90.00
2022-07-29T14:59:31.553Z,90.00
2022-07-29T15:00:31.545Z,90.00
2022-07-29T15:01:31.588Z,90.00
2022-07-29T15:02:52.082Z,90.00
2022-07-29T15:03:31.530Z,90.00
2022-07-29T15:04:31.507Z,84.37
2022-07-29T15:05:31.493Z,84.37
2022-07-29T15:06:31.484Z,84.37
2022-07-29T15:07:31.472Z,84.37
2022-07-29T15:08:31.463Z,84.37
2022-07-29T15:09:31.452Z,84.37
2022-07-29T15:10:31.441Z,84.37
2022-07-29T15:11:31.437Z,84.37
2022-07-29T15:12:32.443Z,84.37
2022-07-29T15:13:31.413Z,84.37
2022-07-29T15:14:31.401Z,78.75
2022-07-29T15:15:31.394Z,78.75
2022-07-29T15:16:31.454Z,78.75
2022-07-29T15:17:31.374Z,73.12
2022-07-29T15:18:31.359Z,73.12
2022-07-29T15:19:31.355Z,73.12
2022-07-29T15:20:31.341Z,73.12
2022-07-29T15:21:31.332Z,73.12
2022-07-29T15:22:31.322Z,73.12
2022-07-29T15:23:31.310Z,73.12
2022-07-29T15:24:31.300Z,67.50
2022-07-29T15:25:31.290Z,67.50
2022-07-29T15:26:31.284Z,67.50
2022-07-29T15:27:31.273Z,61.87
2022-07-29T15:28:31.266Z,61.87
2022-07-29T15:29:31.250Z,61.87
2022-07-29T15:30:33.552Z,56.25
2022-07-29T15:31:31.333Z,61.87
2022-07-29T15:32:31.222Z,61.87
2022-07-29T15:33:31.217Z,61.87
2022-07-29T15:34:31.204Z,61.87
2022-07-29T15:35:31.194Z,67.50
2022-07-29T15:36:53.726Z,67.50
2022-07-29T15:37:48.324Z,73.12
2022-07-29T15:38:32.184Z,73.12
2022-07-29T15:39:31.154Z,78.75
2022-07-29T15:40:31.145Z,78.75
2022-07-29T15:41:31.136Z,78.75
2022-07-29T15:42:31.127Z,78.75
2022-07-29T15:43:31.119Z,78.75
2022-07-29T15:44:31.116Z,84.37
2022-07-29T15:45:32.495Z,84.37
2022-07-29T15:46:31.189Z,78.75
2022-07-29T15:47:31.078Z,73.12
2022-07-29T15:48:31.069Z,67.50
2022-07-29T15:49:31.059Z,56.25
2022-07-29T15:50:32.071Z,50.62
2022-07-29T15:51:31.035Z,50.62
2022-07-29T15:52:31.029Z,56.25
2022-07-29T15:53:31.018Z,61.87
2022-07-29T15:54:31.007Z,61.87
2022-07-29T15:55:30.999Z,61.87
2022-07-29T15:56:30.988Z,56.25
2022-07-29T15:57:30.978Z,50.62
2022-07-29T15:58:30.967Z,45.00
2022-07-29T15:59:30.958Z,39.37
2022-07-29T16:00:30.949Z,33.75
2022-07-29T16:01:31.036Z,33.75
2022-07-29T16:02:30.927Z,28.12
2022-07-29T16:03:30.951Z,22.50
2022-07-29T16:04:30.908Z,22.50
2022-07-29T16:05:30.899Z,16.87
2022-07-29T16:06:30.890Z,16.87